Time,TemperatureF,DewpointF,PressureIn,WindDirection,WindDirectionDegrees,WindSpeedMPH,WindSpeedGustMPH,Humidity,HourlyPrecipIn,Conditions,Clouds,dailyrainin,SoftwareType,DateUTC
2013-01-28 00:04:00,27.5,22.4,30.48,WSW,254,7.0,10.0,81,0.00,,,0.01,Wunderground v.1.15,2013-01-28 05:04:00,
2013-01-28 00:05:00,27.6,22.5,30.48,WSW,253,7.0,10.0,81,0.00,,,0.01,Wunderground v.1.15,2013-01-28 05:05:00,
2013-01-28 00:08:00,27.7,22.3,30.48,WSW,246,7.0,10.0,80,0.00,,,0.01,Wunderground v.1.15,2013-01-28 05:08:00,
2013-01-28 00:10:00,27.7,22.3,30.48,WSW,250,6.0,6.0,80,0.00,,,0.01,Wunderground v.1.15,2013-01-28 05:10:00,
2013-01-28 00:15:00,27.8,22.7,30.47,WSW,243,6.0,7.0,81,0.00,,,0.01,Wunderground v.1.15,2013-01-28 05:15:00,
2013-01-28 00:21:00,27.8,22.7,30.47,WSW,249,6.0,8.0,81,0.00,,,0.01,Wunderground v.1.15,2013-01-28 05:21:00,
2013-01-28 00:26:00,27.8,22.7,30.47,West,263,6.0,8.0,81,0.00,,,0.01,Wunderground v.1.15,2013-01-28 05:26:00,
2013-01-28 00:31:00,27.9,22.8,30.46,WSW,254,6.0,8.0,81,0.00,,,0.01,Wunderground v.1.15,2013-01-28 05:31:00,
2013-01-28 00:37:00,28.0,22.9,30.46,WSW,241,6.0,8.0,81,0.00,,,0.00,Wunderground v.1.15,2013-01-28 05:37:00,
2013-01-28 00:42:00,28.0,22.9,30.45,WSW,250,6.0,9.0,81,0.00,,,0.00,Wunderground v.1.15,2013-01-28 05:42:00,
2013-01-28 00:47:00,27.9,22.8,30.45,SW,236,6.0,9.0,81,0.00,,,0.00,Wunderground v.1.15,2013-01-28 05:47:00,
2013-01-28 00:52:00,27.8,22.7,30.45,WSW,256,6.0,8.0,81,0.00,,,0.00,Wunderground v.1.15,2013-01-28 05:52:00,
2013-01-28 00:57:00,27.6,22.5,30.45,WSW,254,6.0,8.0,81,0.00,,,0.00,Wunderground v.1.15,2013-01-28 05:57:00,
2013-01-28 01:03:00,27.5,22.4,30.45,West,261,6.0,7.0,81,0.00,,,0.00,Wunderground v.1.15,2013-01-28 06:03:00,
2013-01-28 01:08:00,27.5,22.7,30.45,SW,222,6.0,10.0,82,0.00,,,0.00,Wunderground v.1.15,2013-01-28 06:08:00,
2013-01-28 01:13:00,27.6,22.8,30.45,WSW,256,7.0,8.0,82,0.00,,,0.00,Wunderground v.1.15,2013-01-28 06:13:00,
2013-01-28 01:18:00,27.6,22.8,30.44,WSW,250,7.0,8.0,82,0.00,,,0.00,Wunderground v.1.15,2013-01-28 06:18:00,
2013-01-28 01:23:00,27.6,22.8,30.44,West,261,7.0,9.0,82,0.00,,,0.00,Wunderground v.1.15,2013-01-28 06:23:00,
2013-01-28 01:29:00,27.4,22.6,30.44,SW,221,6.0,9.0,82,0.00,,,0.00,Wunderground v.1.15,2013-01-28 06:29:00,
2013-01-28 01:35:00,27.3,22.5,30.44,WSW,240,6.0,8.0,82,0.00,,,0.00,Wunderground v.1.15,2013-01-28 06:35:00,
2013-01-28 01:41:00,27.2,22.7,30.43,WSW,251,6.0,8.0,83,0.00,,,0.00,Wunderground v.1.15,2013-01-28 06:41:00,
2013-01-28 01:46:00,27.2,22.7,30.43,WSW,255,7.0,9.0,83,0.00,,,0.00,Wunderground v.1.15,2013-01-28 06:46:00,
2013-01-28 01:52:00,27.2,23.0,30.44,WSW,257,7.0,8.0,84,0.00,,,0.00,Wunderground v.1.15,2013-01-28 06:52:00,
2013-01-28 01:57:00,27.2,23.0,30.43,SW,235,7.0,11.0,84,0.00,,,0.00,Wunderground v.1.15,2013-01-28 06:57:00,
2013-01-28 02:02:00,27.2,23.0,30.43,SW,236,7.0,9.0,84,0.00,,,0.00,Wunderground v.1.15,2013-01-28 07:02:00,
2013-01-28 02:08:00,27.2,23.0,30.42,WSW,252,6.0,9.0,84,0.00,,,0.00,Wunderground v.1.15,2013-01-28 07:08:00,
2013-01-28 02:14:00,27.3,23.1,30.43,WSW,242,6.0,10.0,84,0.00,,,0.00,Wunderground v.1.15,2013-01-28 07:14:00,
2013-01-28 02:19:00,27.3,23.1,30.43,WSW,255,6.0,10.0,84,0.00,,,0.00,Wunderground v.1.15,2013-01-28 07:19:00,
2013-01-28 02:25:00,27.4,23.5,30.43,SW,231,6.0,9.0,85,0.00,,,0.00,Wunderground v.1.15,2013-01-28 07:25:00,
2013-01-28 02:31:00,27.4,23.5,30.42,SW,231,6.0,8.0,85,0.00,,,0.00,Wunderground v.1.15,2013-01-28 07:31:00,
2013-01-28 02:36:00,27.4,23.5,30.42,SW,232,7.0,9.0,85,0.00,,,0.00,Wunderground v.1.15,2013-01-28 07:36:00,
2013-01-28 02:41:00,27.4,23.5,30.42,WSW,247,7.0,7.0,85,0.00,,,0.00,Wunderground v.1.15,2013-01-28 07:41:00,
2013-01-28 02:46:00,27.5,23.6,30.42,WSW,254,7.0,9.0,85,0.00,,,0.00,Wunderground v.1.15,2013-01-28 07:46:00,
2013-01-28 02:52:00,27.5,23.6,30.42,WSW,252,7.0,8.0,85,0.00,,,0.00,Wunderground v.1.15,2013-01-28 07:52:00,
2013-01-28 02:58:00,27.5,23.6,30.42,WSW,254,7.0,10.0,85,0.00,,,0.00,Wunderground v.1.15,2013-01-28 07:58:00,
2013-01-28 03:03:00,27.5,23.6,30.41,WSW,248,7.0,8.0,85,0.00,,,0.00,Wunderground v.1.15,2013-01-28 08:03:00,
2013-01-28 03:09:00,27.5,23.6,30.41,WSW,241,7.0,10.0,85,0.00,,,0.00,Wunderground v.1.15,2013-01-28 08:09:00,
2013-01-28 03:14:00,27.5,23.6,30.40,WSW,252,8.0,12.0,85,0.00,,,0.00,Wunderground v.1.15,2013-01-28 08:14:00,
2013-01-28 03:20:00,27.5,23.9,30.41,SW,226,8.0,8.0,86,0.00,,,0.00,Wunderground v.1.15,2013-01-28 08:20:00,
2013-01-28 03:25:00,27.5,23.9,30.40,WSW,252,7.0,9.0,86,0.00,,,0.00,Wunderground v.1.15,2013-01-28 08:25:00,
2013-01-28 03:31:00,27.5,23.9,30.39,WSW,244,7.0,10.0,86,0.00,,,0.00,Wunderground v.1.15,2013-01-28 08:31:00,
2013-01-28 03:36:00,27.5,23.9,30.39,WSW,245,6.0,10.0,86,0.00,,,0.00,Wunderground v.1.15,2013-01-28 08:36:00,
2013-01-28 03:41:00,27.5,24.1,30.38,SW,236,5.0,7.0,87,0.00,,,0.00,Wunderground v.1.15,2013-01-28 08:41:00,
2013-01-28 03:47:00,27.6,24.5,30.38,SSW,206,5.0,9.0,88,0.00,,,0.00,Wunderground v.1.15,2013-01-28 08:47:00,
2013-01-28 03:53:00,27.6,24.8,30.39,West,264,6.0,9.0,89,0.00,,,0.00,Wunderground v.1.15,2013-01-28 08:53:00,
2013-01-28 03:59:00,27.7,25.2,30.38,WSW,253,8.0,11.0,90,0.00,,,0.00,Wunderground v.1.15,2013-01-28 08:59:00,
2013-01-28 04:04:00,27.6,25.1,30.38,WSW,252,8.0,8.0,90,0.00,,,0.00,Wunderground v.1.15,2013-01-28 09:04:00,
2013-01-28 04:10:00,27.6,25.3,30.38,WSW,245,6.0,6.0,91,0.00,,,0.00,Wunderground v.1.15,2013-01-28 09:10:00,
2013-01-28 04:15:00,27.6,25.3,30.38,WSW,245,5.0,6.0,91,0.00,,,0.00,Wunderground v.1.15,2013-01-28 09:15:00,
2013-01-28 04:21:00,27.6,25.3,30.38,WSW,252,6.0,9.0,91,0.00,,,0.00,Wunderground v.1.15,2013-01-28 09:21:00,
2013-01-28 04:26:00,27.6,25.3,30.38,SW,222,7.0,10.0,91,0.00,,,0.00,Wunderground v.1.15,2013-01-28 09:26:00,
2013-01-28 04:32:00,27.6,25.3,30.38,SW,235,6.0,6.0,91,0.00,,,0.00,Wunderground v.1.15,2013-01-28 09:32:00,
2013-01-28 04:38:00,27.6,25.6,30.37,SW,231,6.0,7.0,92,0.00,,,0.00,Wunderground v.1.15,2013-01-28 09:38:00,
2013-01-28 04:43:00,27.5,25.2,30.37,SW,231,6.0,7.0,91,0.00,,,0.00,Wunderground v.1.15,2013-01-28 09:43:00,
2013-01-28 04:49:00,27.5,25.5,30.37,SSW,198,5.0,8.0,92,0.00,,,0.00,Wunderground v.1.15,2013-01-28 09:49:00,
2013-01-28 04:54:00,27.5,25.5,30.36,SW,231,5.0,7.0,92,0.00,,,0.00,Wunderground v.1.15,2013-01-28 09:54:00,
2013-01-28 04:59:00,27.5,25.5,30.36,WSW,237,6.0,7.0,92,0.00,,,0.00,Wunderground v.1.15,2013-01-28 09:59:00,
2013-01-28 05:05:00,27.6,25.6,30.36,WSW,240,6.0,9.0,92,0.00,,,0.00,Wunderground v.1.15,2013-01-28 10:05:00,
2013-01-28 05:11:00,27.6,25.6,30.36,SW,236,6.0,8.0,92,0.00,,,0.00,Wunderground v.1.15,2013-01-28 10:11:00,
2013-01-28 05:16:00,27.7,25.7,30.36,SW,219,7.0,11.0,92,0.00,,,0.00,Wunderground v.1.15,2013-01-28 10:16:00,
2013-01-28 05:21:00,27.8,25.8,30.35,WSW,240,7.0,12.0,92,0.00,,,0.00,Wunderground v.1.15,2013-01-28 10:21:00,
2013-01-28 05:27:00,27.9,25.9,30.36,SW,218,7.0,12.0,92,0.00,,,0.00,Wunderground v.1.15,2013-01-28 10:27:00,
2013-01-28 05:32:00,27.9,25.9,30.36,SW,232,5.0,9.0,92,0.00,,,0.00,Wunderground v.1.15,2013-01-28 10:32:00,
2013-01-28 05:38:00,28.0,26.0,30.36,SSW,200,5.0,9.0,92,0.00,,,0.00,Wunderground v.1.15,2013-01-28 10:38:00,
2013-01-28 05:43:00,28.0,26.0,30.36,SW,223,6.0,9.0,92,0.00,,,0.00,Wunderground v.1.15,2013-01-28 10:43:00,
2013-01-28 05:49:00,28.0,26.2,30.36,SW,230,7.0,9.0,93,0.00,,,0.00,Wunderground v.1.15,2013-01-28 10:49:00,
2013-01-28 05:55:00,28.0,26.0,30.35,SW,234,7.0,9.0,92,0.00,,,0.00,Wunderground v.1.15,2013-01-28 10:55:00,
2013-01-28 06:00:00,28.1,26.1,30.36,SSW,195,6.0,6.0,92,0.00,,,0.00,Wunderground v.1.15,2013-01-28 11:00:00,
2013-01-28 06:06:00,28.1,26.1,30.36,SW,225,6.0,9.0,92,0.00,,,0.00,Wunderground v.1.15,2013-01-28 11:06:00,
2013-01-28 06:11:00,28.2,26.4,30.36,WSW,244,7.0,12.0,93,0.00,,,0.00,Wunderground v.1.15,2013-01-28 11:11:00,
2013-01-28 06:17:00,28.2,26.4,30.36,SSW,209,7.0,12.0,93,0.00,,,0.00,Wunderground v.1.15,2013-01-28 11:17:00,
2013-01-28 06:23:00,28.2,26.4,30.35,WSW,250,7.0,15.0,93,0.00,,,0.00,Wunderground v.1.15,2013-01-28 11:23:00,
2013-01-28 06:28:00,28.2,26.4,30.35,WSW,248,7.0,15.0,93,0.00,,,0.00,Wunderground v.1.15,2013-01-28 11:28:00,
2013-01-28 06:33:00,28.2,26.4,30.35,WSW,249,7.0,8.0,93,0.00,,,0.00,Wunderground v.1.15,2013-01-28 11:33:00,
2013-01-28 06:39:00,28.2,26.4,30.36,WSW,240,7.0,10.0,93,0.00,,,0.00,Wunderground v.1.15,2013-01-28 11:39:00,
2013-01-28 06:44:00,28.2,26.4,30.36,SW,216,7.0,9.0,93,0.00,,,0.00,Wunderground v.1.15,2013-01-28 11:44:00,
2013-01-28 06:51:00,28.2,26.4,30.36,WSW,245,7.0,7.0,93,0.00,,,0.00,Wunderground v.1.15,2013-01-28 11:51:00,
2013-01-28 06:56:00,28.3,26.5,30.36,SW,236,7.0,13.0,93,0.00,,,0.00,Wunderground v.1.15,2013-01-28 11:56:00,
2013-01-28 07:02:00,28.3,26.5,30.35,SW,220,7.0,9.0,93,0.00,,,0.00,Wunderground v.1.15,2013-01-28 12:02:00,
2013-01-28 07:07:00,28.4,26.9,30.35,West,259,8.0,13.0,94,0.00,,,0.00,Wunderground v.1.15,2013-01-28 12:07:00,
2013-01-28 07:13:00,28.4,26.9,30.35,SW,232,8.0,8.0,94,0.00,,,0.00,Wunderground v.1.15,2013-01-28 12:13:00,
2013-01-28 07:18:00,28.5,27.0,30.35,WSW,245,7.0,8.0,94,0.00,,,0.00,Wunderground v.1.15,2013-01-28 12:18:00,
2013-01-28 07:24:00,28.5,27.0,30.35,WSW,237,8.0,9.0,94,0.00,,,0.00,Wunderground v.1.15,2013-01-28 12:24:00,
2013-01-28 07:29:00,28.6,27.1,30.35,WSW,254,7.0,9.0,94,0.00,,,0.00,Wunderground v.1.15,2013-01-28 12:29:00,
2013-01-28 07:35:00,28.6,27.1,30.35,SSW,209,7.0,10.0,94,0.00,,,0.00,Wunderground v.1.15,2013-01-28 12:35:00,
2013-01-28 07:40:00,28.8,27.3,30.35,West,260,8.0,8.0,94,0.00,,,0.00,Wunderground v.1.15,2013-01-28 12:40:00,
2013-01-28 07:45:00,28.9,27.4,30.36,WSW,237,8.0,10.0,94,0.00,,,0.00,Wunderground v.1.15,2013-01-28 12:45:00,
2013-01-28 07:50:00,29.1,27.6,30.36,SW,218,8.0,8.0,94,0.00,,,0.00,Wunderground v.1.15,2013-01-28 12:50:00,
2013-01-28 07:56:00,29.2,27.7,30.35,SW,236,8.0,11.0,94,0.00,,,0.00,Wunderground v.1.15,2013-01-28 12:56:00,
2013-01-28 08:01:00,29.3,27.8,30.34,SW,219,8.0,8.0,94,0.00,,,0.00,Wunderground v.1.15,2013-01-28 13:01:00,
2013-01-28 08:06:00,29.3,27.8,30.34,WSW,250,8.0,9.0,94,0.00,,,0.00,Wunderground v.1.15,2013-01-28 13:06:00,
2013-01-28 08:11:00,29.4,27.9,30.33,SW,229,8.0,11.0,94,0.00,,,0.00,Wunderground v.1.15,2013-01-28 13:11:00,
2013-01-28 08:17:00,29.5,28.0,30.33,SSW,212,8.0,11.0,94,0.00,,,0.00,Wunderground v.1.15,2013-01-28 13:17:00,
2013-01-28 08:22:00,29.5,28.0,30.32,SW,227,9.0,11.0,94,0.00,,,0.00,Wunderground v.1.15,2013-01-28 13:22:00,
2013-01-28 08:27:00,29.6,28.1,30.31,SSW,209,9.0,14.0,94,0.00,,,0.00,Wunderground v.1.15,2013-01-28 13:27:00,
2013-01-28 08:33:00,29.6,28.1,30.31,WSW,238,9.0,11.0,94,0.00,,,0.00,Wunderground v.1.15,2013-01-28 13:33:00,
2013-01-28 08:38:00,29.7,28.4,30.31,SSW,205,9.0,12.0,95,0.00,,,0.00,Wunderground v.1.15,2013-01-28 13:38:00,
2013-01-28 08:43:00,29.8,28.3,30.31,SSW,209,8.0,10.0,94,0.00,,,0.00,Wunderground v.1.15,2013-01-28 13:43:00,
2013-01-28 08:49:00,29.9,28.4,30.31,SW,215,8.0,12.0,94,0.00,,,0.00,Wunderground v.1.15,2013-01-28 13:49:00,
2013-01-28 08:55:00,29.9,28.6,30.30,West,259,9.0,13.0,95,0.00,,,0.00,Wunderground v.1.15,2013-01-28 13:55:00,
2013-01-28 09:00:00,29.9,28.6,30.30,SSW,198,10.0,10.0,95,0.00,,,0.00,Wunderground v.1.15,2013-01-28 14:00:00,
2013-01-28 09:06:00,30.0,28.7,30.31,WSW,252,10.0,13.0,95,0.00,,,0.00,Wunderground v.1.15,2013-01-28 14:06:00,
2013-01-28 09:11:00,30.0,28.7,30.30,WSW,244,10.0,15.0,95,0.00,,,0.00,Wunderground v.1.15,2013-01-28 14:11:00,
2013-01-28 09:17:00,30.1,28.8,30.31,West,266,10.0,15.0,95,0.00,,,0.00,Wunderground v.1.15,2013-01-28 14:17:00,
2013-01-28 09:22:00,30.1,28.8,30.31,WSW,242,10.0,14.0,95,0.00,,,0.00,Wunderground v.1.15,2013-01-28 14:22:00,
2013-01-28 09:28:00,30.1,28.8,30.30,WSW,240,9.0,14.0,95,0.00,,,0.00,Wunderground v.1.15,2013-01-28 14:28:00,
2013-01-28 09:33:00,30.2,28.9,30.30,West,265,9.0,10.0,95,0.00,,,0.00,Wunderground v.1.15,2013-01-28 14:33:00,
2013-01-28 09:38:00,30.2,28.9,30.29,WSW,254,10.0,15.0,95,0.00,,,0.00,Wunderground v.1.15,2013-01-28 14:38:00,
2013-01-28 09:43:00,30.2,28.9,30.28,West,266,11.0,11.0,95,0.00,,,0.00,Wunderground v.1.15,2013-01-28 14:43:00,
2013-01-28 09:49:00,30.2,28.9,30.29,WSW,250,10.0,12.0,95,0.00,,,0.00,Wunderground v.1.15,2013-01-28 14:49:00,
2013-01-28 09:55:00,30.3,29.0,30.29,SW,232,10.0,11.0,95,0.00,,,0.00,Wunderground v.1.15,2013-01-28 14:55:00,
2013-01-28 10:01:00,30.4,29.1,30.29,SW,236,10.0,10.0,95,0.00,,,0.00,Wunderground v.1.15,2013-01-28 15:01:00,
2013-01-28 10:07:00,30.4,29.1,30.28,WSW,255,9.0,12.0,95,0.00,,,0.00,Wunderground v.1.15,2013-01-28 15:07:00,
2013-01-28 10:13:00,30.5,29.2,30.27,WSW,249,9.0,17.0,95,0.00,,,0.00,Wunderground v.1.15,2013-01-28 15:13:00,
2013-01-28 10:18:00,30.5,29.2,30.27,West,260,9.0,17.0,95,0.00,,,0.00,Wunderground v.1.15,2013-01-28 15:18:00,
2013-01-28 10:23:00,30.6,29.3,30.27,WSW,252,10.0,12.0,95,0.00,,,0.00,Wunderground v.1.15,2013-01-28 15:23:00,
2013-01-28 10:28:00,30.7,29.4,30.27,WSW,248,9.0,13.0,95,0.00,,,0.00,Wunderground v.1.15,2013-01-28 15:28:00,
2013-01-28 10:34:00,30.7,29.4,30.27,SW,221,8.0,12.0,95,0.00,,,0.00,Wunderground v.1.15,2013-01-28 15:34:00,
2013-01-28 10:39:00,30.7,29.4,30.27,WSW,246,9.0,12.0,95,0.00,,,0.00,Wunderground v.1.15,2013-01-28 15:39:00,
2013-01-28 10:45:00,30.7,29.4,30.26,SW,233,10.0,14.0,95,0.00,,,0.00,Wunderground v.1.15,2013-01-28 15:45:00,
2013-01-28 10:50:00,30.8,29.5,30.26,WSW,240,10.0,10.0,95,0.00,,,0.00,Wunderground v.1.15,2013-01-28 15:50:00,
2013-01-28 10:56:00,30.8,29.5,30.25,WSW,253,11.0,11.0,95,0.00,,,0.00,Wunderground v.1.15,2013-01-28 15:56:00,
2013-01-28 11:01:00,30.8,29.5,30.25,SW,230,11.0,11.0,95,0.00,,,0.00,Wunderground v.1.15,2013-01-28 16:01:00,
2013-01-28 11:07:00,30.8,29.5,30.24,SW,226,11.0,14.0,95,0.00,,,0.00,Wunderground v.1.15,2013-01-28 16:07:00,
2013-01-28 11:12:00,30.8,29.5,30.24,SW,236,11.0,11.0,95,0.00,,,0.00,Wunderground v.1.15,2013-01-28 16:12:00,
2013-01-28 11:18:00,30.8,29.5,30.23,WSW,244,12.0,22.0,95,0.00,,,0.00,Wunderground v.1.15,2013-01-28 16:18:00,
2013-01-28 11:23:00,30.8,29.5,30.23,SW,225,13.0,15.0,95,0.00,,,0.00,Wunderground v.1.15,2013-01-28 16:23:00,
2013-01-28 11:28:00,30.8,29.5,30.23,WSW,254,12.0,16.0,95,0.00,,,0.00,Wunderground v.1.15,2013-01-28 16:28:00,
2013-01-28 11:34:00,30.9,29.6,30.23,West,259,11.0,16.0,95,0.00,,,0.00,Wunderground v.1.15,2013-01-28 16:34:00,
2013-01-28 11:39:00,30.9,29.6,30.22,WSW,237,11.0,16.0,95,0.00,,,0.00,Wunderground v.1.15,2013-01-28 16:39:00,
2013-01-28 11:45:00,31.0,29.7,30.22,SW,225,11.0,14.0,95,0.00,,,0.00,Wunderground v.1.15,2013-01-28 16:45:00,
2013-01-28 11:51:00,31.0,29.7,30.22,West,261,10.0,12.0,95,0.00,,,0.00,Wunderground v.1.15,2013-01-28 16:51:00,
2013-01-28 11:56:00,31.0,29.7,30.22,West,271,10.0,12.0,95,0.00,,,0.00,Wunderground v.1.15,2013-01-28 16:56:00,
2013-01-28 12:01:00,31.2,29.9,30.22,WSW,248,10.0,13.0,95,0.00,,,0.00,Wunderground v.1.15,2013-01-28 17:01:00,
2013-01-28 12:07:00,31.3,30.0,30.21,SW,217,10.0,13.0,95,0.00,,,0.00,Wunderground v.1.15,2013-01-28 17:07:00,
2013-01-28 12:12:00,31.3,30.0,30.19,WSW,247,9.0,11.0,95,0.00,,,0.00,Wunderground v.1.15,2013-01-28 17:12:00,
2013-01-28 12:17:00,31.3,30.0,30.18,West,261,9.0,13.0,95,0.00,,,0.00,Wunderground v.1.15,2013-01-28 17:17:00,
2013-01-28 12:23:00,31.3,30.3,30.19,West,263,9.0,9.0,96,0.00,,,0.00,Wunderground v.1.15,2013-01-28 17:23:00,
2013-01-28 12:29:00,31.4,30.4,30.19,West,259,8.0,12.0,96,0.00,,,0.00,Wunderground v.1.15,2013-01-28 17:29:00,
2013-01-28 12:35:00,31.3,30.3,30.18,SW,227,9.0,10.0,96,0.00,,,0.00,Wunderground v.1.15,2013-01-28 17:35:00,
2013-01-28 12:40:00,31.3,30.3,30.17,West,266,9.0,9.0,96,0.00,,,0.00,Wunderground v.1.15,2013-01-28 17:40:00,
2013-01-28 12:46:00,31.3,30.3,30.16,WSW,250,9.0,11.0,96,0.00,,,0.00,Wunderground v.1.15,2013-01-28 17:46:00,
2013-01-28 12:51:00,31.3,30.3,30.15,SW,235,9.0,11.0,96,0.00,,,0.00,Wunderground v.1.15,2013-01-28 17:51:00,
2013-01-28 12:57:00,31.3,30.3,30.14,SW,227,10.0,11.0,96,0.00,,,0.00,Wunderground v.1.15,2013-01-28 17:57:00,
2013-01-28 13:03:00,31.3,30.0,30.14,West,259,10.0,12.0,95,0.00,,,0.00,Wunderground v.1.15,2013-01-28 18:03:00,
2013-01-28 13:09:00,31.4,30.4,30.14,SW,219,9.0,12.0,96,0.00,,,0.00,Wunderground v.1.15,2013-01-28 18:09:00,
2013-01-28 13:14:00,31.4,30.4,30.14,SW,232,8.0,10.0,96,0.00,,,0.00,Wunderground v.1.15,2013-01-28 18:14:00,
2013-01-28 13:20:00,31.4,30.4,30.13,WSW,254,8.0,8.0,96,0.00,,,0.00,Wunderground v.1.15,2013-01-28 18:20:00,
2013-01-28 13:25:00,31.4,30.4,30.13,WSW,250,8.0,9.0,96,0.00,,,0.00,Wunderground v.1.15,2013-01-28 18:25:00,
2013-01-28 13:31:00,31.4,30.4,30.14,WSW,246,8.0,8.0,96,0.00,,,0.00,Wunderground v.1.15,2013-01-28 18:31:00,
2013-01-28 13:37:00,31.5,30.5,30.12,WSW,238,8.0,10.0,96,0.00,,,0.00,Wunderground v.1.15,2013-01-28 18:37:00,
2013-01-28 13:42:00,31.5,30.5,30.13,West,259,7.0,7.0,96,0.00,,,0.00,Wunderground v.1.15,2013-01-28 18:42:00,
2013-01-28 13:48:00,31.5,30.5,30.12,SW,231,6.0,8.0,96,0.00,,,0.00,Wunderground v.1.15,2013-01-28 18:48:00,
2013-01-28 13:53:00,31.5,30.5,30.11,SW,225,6.0,12.0,96,0.00,,,0.00,Wunderground v.1.15,2013-01-28 18:53:00,
2013-01-28 13:59:00,31.6,30.6,30.12,SW,222,8.0,12.0,96,0.00,,,0.00,Wunderground v.1.15,2013-01-28 18:59:00,
2013-01-28 14:04:00,31.6,30.6,30.11,WSW,246,7.0,9.0,96,0.00,,,0.00,Wunderground v.1.15,2013-01-28 19:04:00,
2013-01-28 14:09:00,31.6,30.6,30.10,WSW,242,7.0,9.0,96,0.00,,,0.00,Wunderground v.1.15,2013-01-28 19:09:00,
2013-01-28 14:15:00,31.7,30.7,30.11,WSW,251,6.0,8.0,96,0.00,,,0.00,Wunderground v.1.15,2013-01-28 19:15:00,
2013-01-28 14:21:00,31.8,30.8,30.10,SW,228,6.0,9.0,96,0.00,,,0.00,Wunderground v.1.15,2013-01-28 19:21:00,
2013-01-28 14:26:00,31.8,30.8,30.10,WSW,257,6.0,9.0,96,0.00,,,0.00,Wunderground v.1.15,2013-01-28 19:26:00,
2013-01-28 14:32:00,31.8,30.8,30.11,WSW,242,5.0,8.0,96,0.00,,,0.00,Wunderground v.1.15,2013-01-28 19:32:00,
2013-01-28 14:37:00,31.8,30.8,30.11,WSW,252,6.0,9.0,96,0.00,,,0.00,Wunderground v.1.15,2013-01-28 19:37:00,
2013-01-28 14:42:00,31.8,30.8,30.10,WSW,253,7.0,7.0,96,0.00,,,0.00,Wunderground v.1.15,2013-01-28 19:42:00,
2013-01-28 14:47:00,31.9,30.9,30.10,WSW,238,5.0,7.0,96,0.00,,,0.00,Wunderground v.1.15,2013-01-28 19:47:00,
2013-01-28 14:53:00,31.9,30.9,30.10,WSW,238,5.0,6.0,96,0.00,,,0.00,Wunderground v.1.15,2013-01-28 19:53:00,
2013-01-28 14:58:00,31.9,30.9,30.09,WSW,253,6.0,8.0,96,0.00,,,0.00,Wunderground v.1.15,2013-01-28 19:58:00,
2013-01-28 15:03:00,32.0,31.0,30.09,WSW,248,6.0,10.0,96,0.00,,,0.00,Wunderground v.1.15,2013-01-28 20:03:00,
2013-01-28 15:08:00,32.0,31.0,30.09,West,264,6.0,10.0,96,0.00,,,0.00,Wunderground v.1.15,2013-01-28 20:08:00,
2013-01-28 15:14:00,32.0,31.0,30.09,West,261,5.0,8.0,96,0.00,,,0.00,Wunderground v.1.15,2013-01-28 20:14:00,
2013-01-28 15:19:00,32.0,31.0,30.09,WSW,257,5.0,8.0,96,0.00,,,0.00,Wunderground v.1.15,2013-01-28 20:19:00,
2013-01-28 15:24:00,32.1,31.1,30.10,WSW,257,5.0,6.0,96,0.00,,,0.00,Wunderground v.1.15,2013-01-28 20:24:00,
2013-01-28 15:29:00,32.1,31.1,30.09,WSW,242,4.0,6.0,96,0.00,,,0.00,Wunderground v.1.15,2013-01-28 20:29:00,
2013-01-28 15:34:00,32.2,31.2,30.09,WSW,258,4.0,7.0,96,0.00,,,0.00,Wunderground v.1.15,2013-01-28 20:34:00,
2013-01-28 15:40:00,32.2,31.2,30.08,WSW,253,5.0,6.0,96,0.00,,,0.00,Wunderground v.1.15,2013-01-28 20:40:00,
2013-01-28 15:45:00,32.2,31.2,30.08,West,266,6.0,7.0,96,0.00,,,0.00,Wunderground v.1.15,2013-01-28 20:45:00,
2013-01-28 15:50:00,32.3,31.3,30.08,West,261,6.0,6.0,96,0.00,,,0.00,Wunderground v.1.15,2013-01-28 20:50:00,
2013-01-28 15:56:00,32.3,31.3,30.08,SW,222,5.0,8.0,96,0.00,,,0.00,Wunderground v.1.15,2013-01-28 20:56:00,
2013-01-28 16:02:00,32.3,31.3,30.09,West,267,6.0,6.0,96,0.00,,,0.00,Wunderground v.1.15,2013-01-28 21:02:00,
2013-01-28 16:07:00,32.4,31.4,30.08,WSW,250,5.0,6.0,96,0.00,,,0.00,Wunderground v.1.15,2013-01-28 21:07:00,
2013-01-28 16:12:00,32.4,31.4,30.08,WSW,238,4.0,5.0,96,0.00,,,0.00,Wunderground v.1.15,2013-01-28 21:12:00,
2013-01-28 16:18:00,32.4,31.4,30.08,WSW,255,5.0,6.0,96,0.00,,,0.00,Wunderground v.1.15,2013-01-28 21:18:00,
2013-01-28 16:24:00,32.5,31.5,30.08,WSW,245,5.0,6.0,96,0.00,,,0.00,Wunderground v.1.15,2013-01-28 21:24:00,
2013-01-28 16:29:00,32.5,31.5,30.08,West,267,4.0,6.0,96,0.00,,,0.00,Wunderground v.1.15,2013-01-28 21:29:00,
2013-01-28 16:35:00,32.5,31.5,30.08,WSW,237,4.0,6.0,96,0.00,,,0.00,Wunderground v.1.15,2013-01-28 21:35:00,
2013-01-28 16:41:00,32.5,31.5,30.08,WSW,246,5.0,7.0,96,0.00,,,0.00,Wunderground v.1.15,2013-01-28 21:41:00,
2013-01-28 16:46:00,32.5,31.5,30.08,WSW,247,5.0,7.0,96,0.00,,,0.00,Wunderground v.1.15,2013-01-28 21:46:00,
2013-01-28 16:51:00,32.5,31.5,30.08,SSW,213,5.0,5.0,96,0.00,,,0.00,Wunderground v.1.15,2013-01-28 21:51:00,
2013-01-28 16:57:00,32.6,31.6,30.08,SSW,212,5.0,6.0,96,0.00,,,0.00,Wunderground v.1.15,2013-01-28 21:57:00,
2013-01-28 17:02:00,32.5,31.5,30.08,West,259,5.0,5.0,96,0.00,,,0.00,Wunderground v.1.15,2013-01-28 22:02:00,
2013-01-28 17:07:00,32.6,31.6,30.09,West,269,5.0,5.0,96,0.00,,,0.00,Wunderground v.1.15,2013-01-28 22:07:00,
2013-01-28 17:12:00,32.6,31.6,30.08,WSW,244,4.0,6.0,96,0.00,,,0.00,Wunderground v.1.15,2013-01-28 22:12:00,
2013-01-28 17:18:00,32.6,31.6,30.08,WSW,249,5.0,6.0,96,0.00,,,0.00,Wunderground v.1.15,2013-01-28 22:18:00,
2013-01-28 17:24:00,32.6,31.6,30.08,WSW,250,5.0,7.0,96,0.00,,,0.00,Wunderground v.1.15,2013-01-28 22:24:00,
2013-01-28 17:29:00,32.6,31.6,30.07,WSW,251,6.0,8.0,96,0.00,,,0.00,Wunderground v.1.15,2013-01-28 22:29:00,
2013-01-28 17:35:00,32.7,31.7,30.07,SW,222,7.0,7.0,96,0.00,,,0.00,Wunderground v.1.15,2013-01-28 22:35:00,
2013-01-28 17:40:00,32.7,31.7,30.06,WSW,255,7.0,9.0,96,0.00,,,0.00,Wunderground v.1.15,2013-01-28 22:40:00,
2013-01-28 17:45:00,32.8,31.8,30.06,WSW,254,8.0,13.0,96,0.00,,,0.00,Wunderground v.1.15,2013-01-28 22:45:00,
2013-01-28 17:51:00,32.8,31.8,30.06,WSW,256,9.0,9.0,96,0.00,,,0.00,Wunderground v.1.15,2013-01-28 22:51:00,
2013-01-28 17:56:00,32.9,31.9,30.05,WSW,255,9.0,12.0,96,0.00,,,0.00,Wunderground v.1.15,2013-01-28 22:56:00,
2013-01-28 18:01:00,32.9,31.9,30.05,WSW,244,9.0,10.0,96,0.00,,,0.00,Wunderground v.1.15,2013-01-28 23:01:00,
2013-01-28 18:07:00,32.9,31.9,30.06,WSW,251,9.0,11.0,96,0.00,,,0.00,Wunderground v.1.15,2013-01-28 23:07:00,
2013-01-28 18:13:00,32.9,31.9,30.06,WSW,246,9.0,10.0,96,0.00,,,0.00,Wunderground v.1.15,2013-01-28 23:13:00,
2013-01-28 18:19:00,33.0,32.0,30.06,West,262,8.0,12.0,96,0.00,,,0.00,Wunderground v.1.15,2013-01-28 23:19:00,
2013-01-28 18:24:00,33.0,32.0,30.06,WSW,248,8.0,12.0,96,0.00,,,0.00,Wunderground v.1.15,2013-01-28 23:24:00,
2013-01-28 18:29:00,33.0,32.0,30.06,WSW,250,8.0,12.0,96,0.00,,,0.00,Wunderground v.1.15,2013-01-28 23:29:00,
2013-01-28 18:34:00,33.0,32.0,30.06,WSW,257,9.0,9.0,96,0.00,,,0.00,Wunderground v.1.15,2013-01-28 23:34:00,
2013-01-28 18:39:00,33.1,32.1,30.06,WSW,252,8.0,11.0,96,0.00,,,0.00,Wunderground v.1.15,2013-01-28 23:39:00,
2013-01-28 18:44:00,33.2,32.2,30.06,WSW,257,9.0,11.0,96,0.00,,,0.00,Wunderground v.1.15,2013-01-28 23:44:00,
2013-01-28 18:50:00,33.2,32.2,30.06,WSW,254,9.0,9.0,96,0.00,,,0.00,Wunderground v.1.15,2013-01-28 23:50:00,
2013-01-28 18:56:00,33.3,32.3,30.06,WSW,243,9.0,12.0,96,0.00,,,0.00,Wunderground v.1.15,2013-01-28 23:56:00,
2013-01-28 19:01:00,33.4,32.4,30.06,West,261,10.0,13.0,96,0.00,,,0.00,Wunderground v.1.15,2013-01-29 00:01:00,
2013-01-28 19:07:00,33.7,32.7,30.06,West,264,11.0,13.0,96,0.00,,,0.00,Wunderground v.1.15,2013-01-29 00:07:00,
2013-01-28 19:12:00,33.7,32.7,30.05,West,265,11.0,12.0,96,0.00,,,0.00,Wunderground v.1.15,2013-01-29 00:12:00,
2013-01-28 19:17:00,33.9,32.9,30.05,WNW,300,11.0,15.0,96,0.00,,,0.00,Wunderground v.1.15,2013-01-29 00:17:00,
2013-01-28 19:23:00,33.9,32.9,30.05,WSW,248,11.0,12.0,96,0.00,,,0.00,Wunderground v.1.15,2013-01-29 00:23:00,
2013-01-28 19:28:00,34.0,33.0,30.05,WSW,257,9.0,12.0,96,0.00,,,0.00,Wunderground v.1.15,2013-01-29 00:28:00,
2013-01-28 19:33:00,34.0,33.0,30.05,West,267,9.0,12.0,96,0.00,,,0.00,Wunderground v.1.15,2013-01-29 00:33:00,
2013-01-28 19:39:00,34.0,33.0,30.05,WSW,258,9.0,12.0,96,0.00,,,0.00,Wunderground v.1.15,2013-01-29 00:39:00,
2013-01-28 19:44:00,34.1,33.1,30.05,West,269,10.0,12.0,96,0.00,,,0.00,Wunderground v.1.15,2013-01-29 00:44:00,
2013-01-28 19:50:00,34.2,33.4,30.05,West,265,10.0,11.0,97,0.00,,,0.00,Wunderground v.1.15,2013-01-29 00:50:00,
2013-01-28 19:56:00,34.2,33.4,30.05,West,261,10.0,12.0,97,0.00,,,0.00,Wunderground v.1.15,2013-01-29 00:56:00,
2013-01-28 20:01:00,34.3,33.5,30.05,West,260,9.0,9.0,97,0.00,,,0.00,Wunderground v.1.15,2013-01-29 01:01:00,
2013-01-28 20:06:00,34.4,33.6,30.06,West,261,8.0,9.0,97,0.00,,,0.00,Wunderground v.1.15,2013-01-29 01:06:00,
2013-01-28 20:11:00,34.4,33.6,30.06,West,267,6.0,6.0,97,0.00,,,0.00,Wunderground v.1.15,2013-01-29 01:11:00,
2013-01-28 20:17:00,34.6,33.8,30.05,WSW,258,5.0,6.0,97,0.00,,,0.00,Wunderground v.1.15,2013-01-29 01:17:00,
2013-01-28 20:22:00,34.7,33.9,30.05,West,264,6.0,9.0,97,0.00,,,0.00,Wunderground v.1.15,2013-01-29 01:22:00,
2013-01-28 20:27:00,34.9,34.1,30.05,West,259,8.0,10.0,97,0.00,,,0.00,Wunderground v.1.15,2013-01-29 01:27:00,
2013-01-28 20:32:00,35.2,34.4,30.04,West,275,10.0,12.0,97,0.00,,,0.00,Wunderground v.1.15,2013-01-29 01:32:00,
2013-01-28 20:38:00,35.4,34.6,30.04,West,276,11.0,14.0,97,0.00,,,0.00,Wunderground v.1.15,2013-01-29 01:38:00,
2013-01-28 20:44:00,35.6,34.8,30.03,West,261,11.0,12.0,97,0.00,,,0.00,Wunderground v.1.15,2013-01-29 01:44:00,
2013-01-28 20:49:00,35.8,35.0,30.03,West,273,11.0,13.0,97,0.00,,,0.00,Wunderground v.1.15,2013-01-29 01:49:00,
2013-01-28 20:55:00,36.0,35.2,30.03,WSW,257,11.0,14.0,97,0.00,,,0.00,Wunderground v.1.15,2013-01-29 01:55:00,
2013-01-28 21:00:00,36.1,35.3,30.03,West,259,11.0,12.0,97,0.00,,,0.01,Wunderground v.1.15,2013-01-29 02:00:00,
2013-01-28 21:06:00,36.4,35.6,30.03,West,265,11.0,14.0,97,0.00,,,0.01,Wunderground v.1.15,2013-01-29 02:06:00,
2013-01-28 21:12:00,36.6,35.8,30.03,West,268,12.0,18.0,97,0.00,,,0.01,Wunderground v.1.15,2013-01-29 02:12:00,
2013-01-28 21:17:00,36.8,36.0,30.03,West,268,12.0,18.0,97,0.00,,,0.02,Wunderground v.1.15,2013-01-29 02:17:00,
2013-01-28 21:22:00,37.0,36.2,30.03,West,267,12.0,14.0,97,0.17,,,0.04,Wunderground v.1.15,2013-01-29 02:22:00,
2013-01-28 21:28:00,37.2,36.4,30.03,West,275,13.0,17.0,97,0.15,,,0.05,Wunderground v.1.15,2013-01-29 02:28:00,
2013-01-28 21:34:00,37.4,36.6,30.03,West,275,13.0,13.0,97,0.11,,,0.06,Wunderground v.1.15,2013-01-29 02:34:00,
2013-01-28 21:39:00,37.4,36.6,30.03,West,271,11.0,13.0,97,0.07,,,0.07,Wunderground v.1.15,2013-01-29 02:39:00,
2013-01-28 21:45:00,37.5,36.7,30.03,West,278,11.0,13.0,97,0.07,,,0.07,Wunderground v.1.15,2013-01-29 02:45:00,
2013-01-28 21:51:00,37.6,36.8,30.03,West,269,11.0,11.0,97,0.05,,,0.08,Wunderground v.1.15,2013-01-29 02:51:00,
2013-01-28 21:56:00,37.7,36.9,30.03,West,279,11.0,13.0,97,0.05,,,0.08,Wunderground v.1.15,2013-01-29 02:56:00,
2013-01-28 22:02:00,37.8,37.0,30.03,West,277,11.0,12.0,97,0.04,,,0.08,Wunderground v.1.15,2013-01-29 03:02:00,
2013-01-28 22:07:00,37.7,36.9,30.03,West,269,10.0,12.0,97,0.00,,,0.08,Wunderground v.1.15,2013-01-29 03:07:00,
2013-01-28 22:12:00,37.7,36.9,30.03,West,277,10.0,10.0,97,0.00,,,0.09,Wunderground v.1.15,2013-01-29 03:12:00,
2013-01-28 22:17:00,37.7,36.9,30.03,West,278,10.0,10.0,97,0.00,,,0.09,Wunderground v.1.15,2013-01-29 03:17:00,
2013-01-28 22:23:00,37.7,36.9,30.03,West,281,9.0,10.0,97,0.00,,,0.09,Wunderground v.1.15,2013-01-29 03:23:00,
2013-01-28 22:28:00,37.6,36.8,30.03,West,279,8.0,10.0,97,0.00,,,0.09,Wunderground v.1.15,2013-01-29 03:28:00,
2013-01-28 22:33:00,37.7,36.9,30.03,West,277,8.0,10.0,97,0.00,,,0.10,Wunderground v.1.15,2013-01-29 03:33:00,
2013-01-28 22:38:00,37.8,37.0,30.03,WNW,283,8.0,11.0,97,0.00,,,0.10,Wunderground v.1.15,2013-01-29 03:38:00,
2013-01-28 22:44:00,37.9,37.1,30.03,West,265,8.0,9.0,97,0.00,,,0.10,Wunderground v.1.15,2013-01-29 03:44:00,
2013-01-28 22:49:00,38.0,37.2,30.03,West,275,8.0,9.0,97,0.00,,,0.10,Wunderground v.1.15,2013-01-29 03:49:00,
2013-01-28 22:54:00,37.9,37.1,30.03,West,279,7.0,8.0,97,0.00,,,0.10,Wunderground v.1.15,2013-01-29 03:54:00,
2013-01-28 23:00:00,37.8,37.0,30.03,West,278,7.0,7.0,97,0.00,,,0.10,Wunderground v.1.15,2013-01-29 04:00:00,
2013-01-28 23:06:00,38.0,37.2,30.03,WNW,283,6.0,7.0,97,0.00,,,0.10,Wunderground v.1.15,2013-01-29 04:06:00,
2013-01-28 23:11:00,38.2,37.4,30.03,West,281,6.0,6.0,97,0.00,,,0.10,Wunderground v.1.15,2013-01-29 04:11:00,
2013-01-28 23:17:00,38.7,37.9,30.03,West,275,6.0,7.0,97,0.00,,,0.10,Wunderground v.1.15,2013-01-29 04:17:00,
2013-01-28 23:22:00,38.9,38.1,30.03,WNW,294,6.0,6.0,97,0.00,,,0.10,Wunderground v.1.15,2013-01-29 04:22:00,
2013-01-28 23:28:00,39.0,38.2,30.03,WNW,300,4.0,6.0,97,0.00,,,0.11,Wunderground v.1.15,2013-01-29 04:28:00,
2013-01-28 23:34:00,39.5,38.7,30.03,WNW,289,5.0,7.0,97,0.00,,,0.11,Wunderground v.1.15,2013-01-29 04:34:00,
2013-01-28 23:39:00,40.2,39.4,30.03,WNW,293,6.0,7.0,97,0.00,,,0.11,Wunderground v.1.15,2013-01-29 04:39:00,
2013-01-28 23:45:00,41.2,40.4,30.03,WNW,300,6.0,8.0,97,0.00,,,0.11,Wunderground v.1.15,2013-01-29 04:45:00,
2013-01-28 23:51:00,41.8,41.0,30.03,WNW,302,7.0,8.0,97,0.00,,,0.11,Wunderground v.1.15,2013-01-29 04:51:00,
2013-01-28 23:56:00,42.7,41.9,30.03,WNW,284,7.0,8.0,97,0.00,,,0.11,Wunderground v.1.15,2013-01-29 04:56:00,